createdAt,value
2023-03-23T15:58:29.986Z,3.97
2023-03-23T16:00:33.233Z,5.70
2023-03-23T16:02:37.183Z,12.83
2023-03-23T16:04:42.948Z,10.77
2023-03-23T16:06:47.477Z,5.50
2023-03-23T16:08:53.842Z,5.33
2023-03-23T16:11:00.171Z,5.77
2023-03-23T16:13:05.146Z,7.10
2023-03-23T16:15:09.337Z,5.80
2023-03-23T16:17:15.904Z,4.30
2023-03-23T16:19:20.763Z,3.63
2023-03-23T16:21:24.053Z,4.70
2023-03-23T16:23:27.215Z,6.73
2023-03-23T16:25:32.113Z,5.30
2023-03-23T16:27:35.276Z,15.37
2023-03-23T16:29:59.962Z,6.30
2023-03-23T16:32:01.526Z,8.70
2023-03-23T16:34:04.821Z,7.77
2023-03-23T16:36:08.739Z,7.17
2023-03-23T16:38:13.743Z,5.77
2023-03-23T16:40:17.680Z,5.47
2023-03-23T16:42:22.202Z,8.20
2023-03-23T16:44:25.340Z,5.40
2023-03-23T16:46:29.558Z,5.10
2023-03-23T16:48:32.842Z,7.40
2023-03-23T16:50:37.118Z,23.07
2023-03-23T16:52:46.398Z,24.60
2023-03-23T16:54:50.046Z,51.13
2023-03-23T16:56:53.167Z,17.00
2023-03-23T16:58:57.739Z,11.23
2023-03-23T17:01:02.352Z,7.90
2023-03-23T17:03:05.695Z,13.63
2023-03-23T17:05:09.375Z,17.27
2023-03-23T17:07:12.670Z,14.57
2023-03-23T17:09:15.968Z,11.90
2023-03-23T17:11:19.275Z,5.10
2023-03-23T17:13:22.406Z,7.53
2023-03-23T17:15:27.293Z,10.50
2023-03-23T17:17:31.124Z,4.20
2023-03-23T17:19:35.249Z,4.40
2023-03-23T17:21:38.596Z,3.97
2023-03-23T17:23:41.707Z,4.00
2023-03-23T17:25:45.971Z,7.67
2023-03-23T17:27:49.382Z,3.60
2023-03-23T17:29:53.036Z,4.37
2023-03-23T17:31:57.499Z,4.23
2023-03-23T17:34:00.867Z,4.93
2023-03-23T17:36:04.313Z,3.77
2023-03-23T17:38:07.516Z,4.77
2023-03-23T17:40:11.467Z,3.83
2023-03-23T17:42:14.789Z,3.90
2023-03-23T17:44:17.857Z,8.20
2023-03-23T17:46:21.092Z,7.50
2023-03-23T17:48:26.852Z,4.07
2023-03-23T17:50:30.081Z,5.43
2023-03-23T17:52:33.264Z,17.67
2023-03-23T17:54:36.414Z,33.77
2023-03-23T17:56:39.787Z,30.17
2023-03-23T17:58:43.030Z,3.93
2023-03-23T18:00:46.342Z,3.70
2023-03-23T18:02:49.560Z,3.83
2023-03-23T18:04:54.149Z,3.40
2023-03-23T18:06:57.755Z,3.63
2023-03-23T18:09:00.880Z,3.63
2023-03-23T18:11:04.729Z,5.50
2023-03-23T18:13:08.915Z,2.90
2023-03-23T18:15:12.486Z,4.87
2023-03-23T18:17:15.646Z,4.70
2023-03-23T18:19:18.818Z,5.00
2023-03-23T18:21:26.060Z,5.23
2023-03-23T18:23:32.090Z,6.10
2023-03-23T18:25:35.556Z,3.50
2023-03-23T18:27:38.666Z,5.00
2023-03-23T18:29:41.840Z,3.80
2023-03-23T18:31:45.037Z,4.73
2023-03-23T18:33:49.645Z,4.97
2023-03-23T18:35:58.605Z,10.20
2023-03-23T18:38:03.490Z,7.37
2023-03-23T18:40:10.865Z,5.70
2023-03-23T18:42:14.155Z,3.60
2023-03-23T18:44:17.229Z,3.93
2023-03-23T18:46:20.770Z,3.80
2023-03-23T18:48:24.854Z,3.80
2023-03-23T18:50:27.908Z,4.63
2023-03-23T18:52:31.828Z,3.13
2023-03-23T18:54:38.259Z,4.83
2023-03-23T18:56:41.665Z,4.40
2023-03-23T18:58:46.003Z,5.77
2023-03-23T19:00:50.143Z,4.43
2023-03-23T19:02:53.566Z,3.87
2023-03-23T19:04:57.079Z,3.90
2023-03-23T19:07:01.499Z,5.00
2023-03-23T19:09:04.933Z,3.63
2023-03-23T19:11:09.333Z,2.93
2023-03-23T19:13:12.561Z,3.07
2023-03-23T19:15:16.266Z,3.90
2023-03-23T19:17:19.520Z,4.03
2023-03-23T19:19:24.941Z,4.10
2023-03-23T19:21:29.880Z,4.30
2023-03-23T19:23:34.594Z,4.30
2023-03-23T19:25:37.733Z,3.40
2023-03-23T19:28:18.193Z,3.73
2023-03-23T19:30:06.819Z,3.37
2023-03-23T19:32:10.671Z,4.40
2023-03-23T19:34:14.328Z,3.17
2023-03-23T19:36:18.435Z,3.80
2023-03-23T19:38:22.869Z,3.07
2023-03-23T19:40:39.636Z,5.30
2023-03-23T19:42:51.103Z,3.50
2023-03-23T19:44:54.280Z,6.33
2023-03-23T19:46:57.764Z,4.03
2023-03-23T19:49:01.853Z,3.73
2023-03-23T19:51:05.270Z,4.63
2023-03-23T19:53:08.480Z,4.17
2023-03-23T19:55:11.548Z,4.10
2023-03-23T19:57:14.682Z,3.93
2023-03-23T19:59:19.318Z,4.00
2023-03-23T20:01:22.541Z,4.13
2023-03-23T20:03:26.098Z,3.57
2023-03-23T20:05:29.690Z,4.23
2023-03-23T20:07:32.781Z,4.50
2023-03-23T20:09:36.710Z,3.97
2023-03-23T20:11:39.716Z,3.67
2023-03-23T20:13:42.895Z,4.10
2023-03-23T20:15:52.990Z,3.90
2023-03-23T20:17:58.085Z,4.43
2023-03-23T20:20:01.778Z,5.40
2023-03-23T20:22:05.982Z,3.63
2023-03-23T20:24:09.377Z,3.30
2023-03-23T20:26:14.564Z,5.13
2023-03-23T20:28:17.600Z,3.57
2023-03-23T20:30:20.884Z,3.67
2023-03-23T20:32:25.864Z,5.40
2023-03-23T20:34:32.226Z,3.90
2023-03-23T20:36:36.816Z,3.63
2023-03-23T20:38:42.529Z,3.60
2023-03-23T20:40:46.875Z,3.27
2023-03-23T20:42:50.947Z,4.00
2023-03-23T20:44:54.182Z,3.50
2023-03-23T20:46:57.422Z,3.10
2023-03-23T20:49:02.088Z,4.50
2023-03-23T20:51:08.002Z,3.40
2023-03-23T20:53:11.323Z,3.40
2023-03-23T20:55:15.365Z,3.60
2023-03-23T20:57:19.313Z,3.53
2023-03-23T20:59:22.535Z,3.77
2023-03-23T21:01:26.316Z,4.30
2023-03-23T21:03:31.566Z,4.30
2023-03-23T21:05:36.085Z,7.33
2023-03-23T21:07:39.283Z,3.20
2023-03-23T21:09:43.023Z,4.00
2023-03-23T21:11:46.547Z,6.17
2023-03-23T21:13:50.677Z,3.73
2023-03-23T21:15:54.652Z,4.33
2023-03-23T21:17:58.302Z,4.37
2023-03-23T21:20:01.532Z,4.63
2023-03-23T21:22:07.037Z,4.07
2023-03-23T21:24:11.751Z,4.10
2023-03-23T21:26:17.305Z,4.20
2023-03-23T21:28:20.984Z,4.43
2023-03-23T21:30:24.090Z,4.90
2023-03-23T21:32:27.898Z,4.70
2023-03-23T21:34:31.046Z,4.10
2023-03-23T21:36:34.796Z,5.60
2023-03-23T21:38:39.827Z,3.97
2023-03-23T21:40:43.518Z,4.97
2023-03-23T21:42:48.964Z,7.57
2023-03-23T21:44:52.385Z,4.83
2023-03-23T21:46:55.487Z,4.43
2023-03-23T21:48:59.125Z,6.47
2023-03-23T21:51:06.583Z,3.90
2023-03-23T21:53:12.980Z,5.60
2023-03-23T21:55:18.182Z,4.00
2023-03-23T21:57:21.388Z,4.83
2023-03-23T21:59:24.727Z,4.50
2023-03-23T22:01:30.186Z,5.20
2023-03-23T22:03:35.260Z,4.70
2023-03-23T22:05:40.762Z,5.83
2023-03-23T22:07:44.130Z,6.57
2023-03-23T22:09:47.358Z,6.23
2023-03-23T22:11:52.195Z,5.97
2023-03-23T22:13:56.967Z,3.90
2023-03-23T22:16:00.961Z,4.87
2023-03-23T22:18:04.477Z,4.20
2023-03-23T22:20:10.848Z,4.93
2023-03-23T22:22:14.082Z,3.90
2023-03-23T22:24:17.646Z,4.13
2023-03-23T22:26:21.026Z,4.50
2023-03-23T22:28:27.434Z,3.70
2023-03-23T22:30:30.913Z,4.47
2023-03-23T22:32:34.256Z,4.00
2023-03-23T22:34:37.847Z,3.80
2023-03-23T22:36:41.539Z,4.87
2023-03-23T22:38:47.025Z,4.70
2023-03-23T22:40:56.295Z,3.83
2023-03-23T22:42:59.520Z,4.47
2023-03-23T22:45:04.121Z,3.60
2023-03-23T22:47:07.315Z,5.30
2023-03-23T22:49:10.895Z,3.83
2023-03-23T22:51:15.639Z,6.10
2023-03-23T22:53:19.078Z,4.97
2023-03-23T22:55:22.424Z,5.50
2023-03-23T22:57:25.807Z,4.70
2023-03-23T22:59:29.171Z,3.90
2023-03-23T23:01:34.009Z,3.83
2023-03-23T23:03:38.114Z,6.30
2023-03-23T23:05:43.324Z,7.90
2023-03-23T23:07:46.585Z,6.53
2023-03-23T23:09:50.636Z,6.73
2023-03-23T23:11:53.795Z,5.67
2023-03-23T23:13:57.051Z,5.10
2023-03-23T23:16:02.238Z,7.60
2023-03-23T23:18:07.042Z,7.40
2023-03-23T23:20:12.938Z,6.47
2023-03-23T23:22:19.339Z,8.80
2023-03-23T23:24:22.946Z,7.17
2023-03-23T23:26:27.527Z,6.80
2023-03-23T23:28:31.120Z,6.53
2023-03-23T23:30:35.038Z,8.33
2023-03-23T23:32:38.401Z,9.93
2023-03-23T23:34:43.284Z,7.10
2023-03-23T23:36:47.121Z,8.67
2023-03-23T23:38:50.590Z,9.10
2023-03-23T23:40:53.830Z,7.20
2023-03-23T23:42:56.940Z,7.87
2023-03-23T23:45:00.156Z,7.37
2023-03-23T23:47:03.375Z,9.13
2023-03-23T23:49:07.059Z,6.97
2023-03-23T23:51:15.267Z,8.53
2023-03-23T23:53:22.737Z,7.63
2023-03-23T23:55:26.466Z,7.53
2023-03-23T23:57:29.624Z,8.23
2023-03-23T23:59:32.764Z,7.37
